Time;durP1;ratioP1;P1;durP2;ratioP2;P2;SDS_P1;SDS_P2;PMS_P1;PMS_P2;Temp;Humidity;BMP_temperature;BMP_pressure;BME280_temperature;BME280_humidity;BME280_pressure;Samples;Min_cycle;Max_cycle;Signal;HPM_P1;HPM_P2
2022/04/11 00:00:57;;;;;;;14.50;9.90;;;;;;;6.50;65.07;101741.69;5071116;28;20104;-68
2022/04/11 00:03:23;;;;;;;18.55;10.63;;;;;;;6.56;64.81;101740.16;5072815;28;20387;-68
2022/04/11 00:05:48;;;;;;;17.02;10.70;;;;;;;6.54;65.70;101737.66;5073176;28;20036;-67
2022/04/11 00:08:13;;;;;;;26.30;11.70;;;;;;;6.50;64.53;101730.94;5073444;28;20047;-68
2022/04/11 00:10:39;;;;;;;22.67;12.00;;;;;;;6.52;64.52;101726.25;5055017;28;20081;-68
2022/04/11 00:13:05;;;;;;;23.35;11.48;;;;;;;6.55;65.33;101725.88;5073234;28;20025;-68
2022/04/11 00:15:33;;;;;;;25.55;11.85;;;;;;;6.49;64.97;101723.91;5073059;28;20036;-69
2022/04/11 00:18:01;;;;;;;31.40;12.10;;;;;;;6.50;64.98;101724.72;5071417;28;20032;-69
2022/04/11 00:20:27;;;;;;;32.15;11.82;;;;;;;6.54;63.99;101724.19;5073086;28;20091;-68
2022/04/11 00:22:52;;;;;;;40.67;12.95;;;;;;;6.55;63.95;101727.72;5073136;28;20472;-68
2022/04/11 00:25:17;;;;;;;39.85;12.50;;;;;;;6.56;63.73;101724.03;5073067;28;20032;-68
2022/04/11 00:27:42;;;;;;;36.05;12.35;;;;;;;6.61;63.43;101724.31;5072830;28;20065;-69
2022/04/11 00:30:08;;;;;;;39.17;13.15;;;;;;;6.63;63.63;101719.63;5072962;28;20357;-69
2022/04/11 00:32:39;;;;;;;44.00;13.55;;;;;;;6.59;63.68;101714.78;5072694;28;20089;-69
2022/04/11 00:35:05;;;;;;;39.63;13.45;;;;;;;6.58;64.29;101711.22;5072893;28;20032;-68
2022/04/11 00:37:30;;;;;;;46.30;15.02;;;;;;;6.60;64.72;101711.03;5073098;28;20578;-67
2022/04/11 00:39:56;;;;;;;35.53;12.80;;;;;;;6.60;64.35;101708.34;5058582;28;20148;-68
2022/04/11 00:42:21;;;;;;;35.05;13.65;;;;;;;6.57;64.32;101704.19;5052822;28;20385;-69
2022/04/11 00:44:46;;;;;;;37.22;13.10;;;;;;;6.55;64.84;101704.38;5052573;28;20110;-68
2022/04/11 00:47:12;;;;;;;29.23;12.15;;;;;;;6.55;64.57;101695.44;5052669;28;20449;-69
2022/04/11 00:49:37;;;;;;;31.40;12.60;;;;;;;6.53;64.82;101694.78;5052600;28;20127;-69
2022/04/11 00:52:04;;;;;;;31.60;12.07;;;;;;;6.50;64.44;101692.47;5052638;28;20122;-69
2022/04/11 00:54:31;;;;;;;22.13;11.60;;;;;;;6.52;64.70;101690.44;5034798;28;20040;-69
2022/04/11 00:56:57;;;;;;;28.98;12.23;;;;;;;6.53;64.61;101686.72;5052303;28;20055;-68
2022/04/11 00:59:24;;;;;;;23.67;10.85;;;;;;;6.50;65.18;101682.53;5052519;28;20456;-69
2022/04/11 01:01:49;;;;;;;23.15;11.10;;;;;;;6.50;64.68;101682.53;5051169;28;20041;-68
2022/04/11 01:04:24;;;;;;;22.65;11.13;;;;;;;6.53;64.60;101676.81;5052553;28;20108;-69
2022/04/11 01:06:50;;;;;;;24.90;11.30;;;;;;;6.48;64.22;101684.56;5051825;28;20399;-68
2022/04/11 01:09:16;;;;;;;24.75;11.55;;;;;;;6.51;65.00;101691.47;5052491;28;20053;-69
2022/04/11 01:11:42;;;;;;;23.60;11.25;;;;;;;6.51;65.09;101680.72;5052297;28;20546;-68
2022/04/11 01:14:07;;;;;;;22.02;11.55;;;;;;;6.45;64.53;101674.19;5034732;28;20583;-68
2022/04/11 01:16:33;;;;;;;26.77;11.57;;;;;;;6.49;65.66;101677.34;5052247;28;20060;-69
2022/04/11 01:18:58;;;;;;;26.25;11.88;;;;;;;6.45;66.43;101678.72;5051945;28;20029;-68
2022/04/11 01:21:27;;;;;;;28.48;11.75;;;;;;;6.43;65.63;101673.53;5052692;28;20025;-68
2022/04/11 01:23:52;;;;;;;22.95;11.82;;;;;;;6.42;66.42;101677.22;5052056;28;20058;-68
2022/04/11 01:26:22;;;;;;;24.48;12.07;;;;;;;6.36;65.85;101665.31;5052331;28;20025;-69
2022/04/11 01:28:48;;;;;;;24.63;11.90;;;;;;;6.38;66.06;101674.03;5051999;28;20036;-68
2022/04/11 01:31:15;;;;;;;24.90;11.55;;;;;;;6.39;65.50;101681.09;5052452;28;20106;-69
2022/04/11 01:33:41;;;;;;;21.65;11.30;;;;;;;6.38;66.30;101683.97;5051977;28;20033;-68
2022/04/11 01:36:07;;;;;;;19.17;11.55;;;;;;;6.35;66.79;101684.31;5052257;28;20487;-68
2022/04/11 01:38:32;;;;;;;20.55;11.43;;;;;;;6.30;67.57;101675.94;5052135;28;20413;-68
2022/04/11 01:40:57;;;;;;;20.02;11.18;;;;;;;6.30;66.91;101678.63;5058256;28;20029;-68
2022/04/11 01:43:24;;;;;;;21.30;11.13;;;;;;;6.21;67.67;101675.16;5072101;28;20531;-69
2022/04/11 01:45:51;;;;;;;19.27;11.75;;;;;;;6.27;67.10;101676.31;5071917;28;20091;-68
2022/04/11 01:48:16;;;;;;;24.92;12.02;;;;;;;6.21;67.75;101678.66;5072006;28;20036;-68
2022/04/11 01:50:42;;;;;;;17.77;11.25;;;;;;;6.24;67.58;101673.97;5070031;28;20025;-69
2022/04/11 01:53:10;;;;;;;19.60;11.73;;;;;;;6.26;67.36;101674.63;5071755;28;20388;-69
2022/04/11 01:55:36;;;;;;;19.90;11.85;;;;;;;6.25;67.91;101672.94;5071721;28;20512;-69
2022/04/11 01:58:05;;;;;;;18.58;11.57;;;;;;;6.20;67.61;101671.63;5071658;28;20029;-69
2022/04/11 02:00:32;;;;;;;18.85;11.50;;;;;;;6.25;67.71;101672.94;5069648;28;20468;-68
2022/04/11 02:03:01;;;;;;;17.80;11.25;;;;;;;6.17;67.80;101666.59;5070048;28;20094;-69
2022/04/11 02:05:28;;;;;;;18.83;11.60;;;;;;;6.17;67.07;101669.28;5071649;28;20029;-68
2022/04/11 02:07:54;;;;;;;16.63;10.82;;;;;;;6.14;67.23;101663.41;5071699;28;20148;-68
2022/04/11 02:10:19;;;;;;;14.95;10.50;;;;;;;6.15;67.37;101663.25;5071957;28;20503;-69
2022/04/11 02:12:45;;;;;;;16.45;10.70;;;;;;;6.11;68.20;101664.59;5071278;28;20111;-69
2022/04/11 02:15:11;;;;;;;17.35;10.98;;;;;;;6.04;67.97;101660.97;5071871;28;20027;-69
2022/04/11 02:17:37;;;;;;;13.75;10.45;;;;;;;6.04;68.00;101666.34;5071875;28;20075;-69
2022/04/11 02:20:03;;;;;;;16.58;11.48;;;;;;;6.03;67.84;101660.09;5074118;28;20032;-68
2022/04/11 02:22:29;;;;;;;15.35;10.40;;;;;;;6.05;67.67;101661.78;5075443;28;20031;-69
2022/04/11 02:24:55;;;;;;;16.27;11.00;;;;;;;6.01;68.42;101669.38;5055505;28;20388;-68
2022/04/11 02:27:20;;;;;;;16.80;10.88;;;;;;;5.98;68.34;101670.56;5075603;28;20032;-72
2022/04/11 02:29:45;;;;;;;17.10;10.98;;;;;;;5.98;67.98;101667.88;5074908;28;20384;-69
2022/04/11 02:32:10;;;;;;;15.70;10.77;;;;;;;5.91;68.63;101666.03;5075229;28;20067;-74
2022/04/11 02:34:36;;;;;;;17.33;10.88;;;;;;;5.90;69.04;101670.53;5075442;28;20030;-68
2022/04/11 02:37:01;;;;;;;14.07;10.93;;;;;;;5.85;69.07;101668.38;5074862;28;20119;-68
2022/04/11 02:39:27;;;;;;;16.85;11.13;;;;;;;5.81;70.15;101667.06;5075360;28;20460;-68
2022/04/11 02:41:52;;;;;;;13.80;10.32;;;;;;;5.79;70.16;101663.69;5075115;28;20025;-68
2022/04/11 02:44:17;;;;;;;15.35;10.57;;;;;;;5.81;69.68;101668.91;5074998;28;20024;-68
2022/04/11 02:46:42;;;;;;;14.82;10.77;;;;;;;5.72;69.65;101656.50;5059399;28;20091;-68
2022/04/11 02:49:08;;;;;;;14.20;10.23;;;;;;;5.72;69.80;101656.50;5055083;28;20036;-68
2022/04/11 02:51:34;;;;;;;14.48;10.27;;;;;;;5.69;69.72;101663.06;5054840;28;20047;-68
2022/04/11 02:54:02;;;;;;;15.00;10.20;;;;;;;5.63;69.23;101666.44;5036681;28;20043;-68
2022/04/11 02:56:27;;;;;;;15.50;10.55;;;;;;;5.60;70.04;101664.09;5054831;28;20116;-68
2022/04/11 02:58:52;;;;;;;13.30;9.95;;;;;;;5.55;69.43;101663.78;5054695;28;20159;-68
2022/04/11 03:01:18;;;;;;;16.95;10.52;;;;;;;5.53;69.77;101655.91;5052323;28;20036;-67
2022/04/11 03:03:43;;;;;;;16.45;10.63;;;;;;;5.54;69.92;101659.41;5054461;28;20111;-68
2022/04/11 03:06:08;;;;;;;13.93;11.05;;;;;;;5.52;69.69;101662.28;5054418;28;20037;-68
2022/04/11 03:08:33;;;;;;;14.13;9.95;;;;;;;5.45;69.40;101651.41;5072517;28;20032;-68
2022/04/11 03:10:59;;;;;;;13.32;10.60;;;;;;;5.45;69.42;101648.72;5073982;28;20483;-67
2022/04/11 03:13:24;;;;;;;14.85;10.32;;;;;;;5.42;69.08;101646.38;5074605;28;20029;-68
2022/04/11 03:15:49;;;;;;;14.45;10.20;;;;;;;5.41;69.49;101651.91;5074279;28;20033;-68
2022/04/11 03:18:15;;;;;;;13.70;10.18;;;;;;;5.35;69.40;101645.38;5074114;28;20036;-68
2022/04/11 03:20:40;;;;;;;15.80;10.85;;;;;;;5.37;69.75;101650.56;5074380;28;20108;-68
2022/04/11 03:23:05;;;;;;;14.85;10.75;;;;;;;5.36;69.88;101652.44;5074062;28;20032;-68
2022/04/11 03:25:31;;;;;;;15.13;10.65;;;;;;;5.29;69.51;101649.56;5074280;28;20529;-68
2022/04/11 03:27:57;;;;;;;13.38;10.70;;;;;;;5.22;69.86;101653.09;5072106;28;20145;-68
2022/04/11 03:30:22;;;;;;;13.10;9.77;;;;;;;5.11;70.29;101643.56;5073500;28;20033;-68
2022/04/11 03:32:47;;;;;;;11.73;9.93;;;;;;;5.11;70.80;101652.44;5073633;28;20108;-68
2022/04/11 03:35:12;;;;;;;14.57;10.90;;;;;;;5.10;70.94;101647.25;5074068;28;20028;-68
2022/04/11 03:37:38;;;;;;;14.10;10.88;;;;;;;5.09;70.91;101651.78;5073621;28;20051;-68
2022/04/11 03:40:03;;;;;;;13.90;10.23;;;;;;;5.09;70.76;101649.09;5073458;28;20028;-68
2022/04/11 03:42:29;;;;;;;16.98;10.82;;;;;;;5.02;71.08;101648.09;5070720;28;20041;-68
2022/04/11 03:44:54;;;;;;;16.48;10.60;;;;;;;4.98;70.59;101657.47;5053364;28;20388;-68
2022/04/11 03:47:19;;;;;;;15.38;10.68;;;;;;;4.99;69.97;101659.16;5053591;28;20025;-68
2022/04/11 03:49:44;;;;;;;13.57;10.70;;;;;;;4.94;71.52;101653.47;5053679;28;20452;-68
2022/04/11 03:52:10;;;;;;;12.82;10.30;;;;;;;4.96;71.50;101654.97;5053442;28;20025;-68
2022/04/11 03:54:35;;;;;;;14.90;10.70;;;;;;;4.91;71.64;101653.81;5053716;28;20029;-67
2022/04/11 03:57:01;;;;;;;14.30;10.90;;;;;;;4.90;71.87;101668.22;5053443;28;20037;-68
2022/04/11 03:59:26;;;;;;;14.75;10.70;;;;;;;4.85;71.58;101658.00;5053492;28;20032;-68
2022/04/11 04:01:52;;;;;;;13.95;10.52;;;;;;;4.78;71.90;101655.13;5056214;28;20036;-68
2022/04/11 04:04:17;;;;;;;17.67;11.20;;;;;;;4.72;72.07;101658.47;5073611;28;20075;-68
2022/04/11 04:06:42;;;;;;;14.00;10.82;;;;;;;4.74;72.18;101655.63;5073338;28;20052;-68
2022/04/11 04:09:07;;;;;;;13.90;11.52;;;;;;;4.67;72.94;101646.59;5073114;28;20036;-68
2022/04/11 04:11:33;;;;;;;17.08;11.52;;;;;;;4.62;72.96;101649.78;5073085;28;20035;-68
2022/04/11 04:13:58;;;;;;;16.48;11.63;;;;;;;4.64;72.45;101652.28;5073051;28;20115;-68
2022/04/11 04:16:23;;;;;;;16.17;11.95;;;;;;;4.59;72.82;101642.06;5055311;28;20119;-68
2022/04/11 04:18:49;;;;;;;13.23;11.00;;;;;;;4.61;72.69;101643.56;5073010;28;20028;-68
2022/04/11 04:21:18;;;;;;;16.85;11.32;;;;;;;4.61;71.71;101640.03;5073156;28;20491;-68
2022/04/11 04:23:44;;;;;;;15.07;10.98;;;;;;;4.63;72.07;101640.72;5053432;28;20067;-68
2022/04/11 04:26:09;;;;;;;15.68;11.30;;;;;;;4.69;71.77;101640.03;5073169;28;20064;-67
2022/04/11 04:28:34;;;;;;;14.00;11.38;;;;;;;4.66;71.15;101634.19;5072861;28;20059;-68
2022/04/11 04:31:00;;;;;;;16.60;10.95;;;;;;;4.68;71.36;101638.38;5072412;28;20035;-68
2022/04/11 04:33:25;;;;;;;15.38;11.82;;;;;;;4.67;71.71;101635.88;5055025;28;20446;-68
2022/04/11 04:35:51;;;;;;;17.73;11.60;;;;;;;4.68;71.51;101633.03;5072687;28;20020;-68
2022/04/11 04:38:16;;;;;;;15.43;10.95;;;;;;;4.64;71.60;101633.53;5072827;28;20112;-68
2022/04/11 04:40:41;;;;;;;13.15;11.02;;;;;;;4.57;71.19;101634.16;5072769;28;20464;-67
2022/04/11 04:43:08;;;;;;;16.27;11.52;;;;;;;4.57;71.76;101636.00;5072170;28;20025;-68
2022/04/11 04:45:35;;;;;;;14.20;11.63;;;;;;;4.56;72.10;101634.31;5072060;28;20032;-68
2022/04/11 04:48:00;;;;;;;15.35;11.23;;;;;;;4.57;72.17;101633.34;5072826;28;20037;-68
2022/04/11 04:50:26;;;;;;;17.80;12.07;;;;;;;4.57;72.11;101630.66;5072634;28;20028;-68
2022/04/11 04:52:51;;;;;;;15.88;11.38;;;;;;;4.52;71.70;101628.47;5072475;28;20508;-68
2022/04/11 04:55:16;;;;;;;16.48;11.82;;;;;;;4.51;72.07;101628.63;5073001;28;20107;-68
2022/04/11 04:57:41;;;;;;;13.68;11.25;;;;;;;4.53;72.65;101629.28;5054832;28;20036;-68
2022/04/11 05:00:07;;;;;;;15.00;11.35;;;;;;;4.55;72.27;101632.66;5072328;28;20479;-68
2022/04/11 05:02:39;;;;;;;17.55;11.27;;;;;;;4.51;72.31;101636.69;5070240;28;20054;-68
2022/04/11 05:05:10;;;;;;;13.82;11.13;;;;;;;4.48;72.60;101632.47;5072520;28;20042;-68
2022/04/11 05:07:35;;;;;;;13.52;11.13;;;;;;;4.47;72.53;101624.59;5036378;28;20067;-68
2022/04/11 05:10:04;;;;;;;13.55;10.88;;;;;;;4.50;72.94;101624.28;5052202;28;20376;-68
2022/04/11 05:12:38;;;;;;;13.68;10.82;;;;;;;4.53;72.00;101619.44;5052377;28;20051;-68
2022/04/11 05:15:04;;;;;;;14.10;11.63;;;;;;;4.56;72.17;101618.25;5034254;28;20021;-68
2022/04/11 05:17:29;;;;;;;15.05;10.82;;;;;;;4.54;71.93;101622.94;5052184;28;20029;-67
2022/04/11 05:19:54;;;;;;;15.98;10.75;;;;;;;4.55;71.95;101617.41;5051862;28;20029;-68
2022/04/11 05:22:20;;;;;;;15.40;10.90;;;;;;;4.58;72.64;101621.63;5052276;28;20029;-68
2022/04/11 05:24:45;;;;;;;16.52;11.07;;;;;;;4.59;73.11;101626.81;5052069;28;20029;-68
2022/04/11 05:27:10;;;;;;;14.75;11.07;;;;;;;4.60;71.94;101616.91;5037359;28;20029;-67
2022/04/11 05:29:36;;;;;;;13.07;10.57;;;;;;;4.65;71.76;101611.91;5072202;28;20024;-67
2022/04/11 05:32:01;;;;;;;16.15;11.25;;;;;;;4.69;71.75;101615.09;5072085;28;20032;-68
2022/04/11 05:34:26;;;;;;;14.55;10.13;;;;;;;4.75;71.34;101609.88;5072264;28;20111;-68
2022/04/11 05:36:52;;;;;;;14.57;10.88;;;;;;;4.78;71.74;101620.25;5072322;28;20379;-68
2022/04/11 05:39:17;;;;;;;16.65;11.30;;;;;;;4.78;71.36;101620.25;5054397;28;20032;-68
2022/04/11 05:41:42;;;;;;;16.42;10.90;;;;;;;4.86;72.04;101618.59;5072428;28;20360;-68
2022/04/11 05:44:08;;;;;;;15.43;11.27;;;;;;;4.89;70.55;101611.06;5072028;28;20455;-68
2022/04/11 05:46:33;;;;;;;16.13;10.10;;;;;;;4.92;71.47;101613.41;5071839;28;20032;-68
2022/04/11 05:48:58;;;;;;;17.92;11.40;;;;;;;4.97;71.31;101616.41;5068116;28;20047;-68
2022/04/11 05:51:25;;;;;;;17.55;11.35;;;;;;;5.05;71.81;101612.88;5052059;28;20033;-68
2022/04/11 05:53:50;;;;;;;20.13;10.98;;;;;;;5.08;71.31;101612.53;5053131;28;20473;-68
2022/04/11 05:56:16;;;;;;;15.77;10.50;;;;;;;5.13;71.24;101625.44;5055562;28;20111;-68
2022/04/11 05:58:41;;;;;;;13.68;10.60;;;;;;;5.19;70.37;101621.25;5055796;28;20116;-68
2022/04/11 06:01:06;;;;;;;16.33;10.68;;;;;;;5.23;70.46;101617.22;5053418;28;20115;-68
2022/04/11 06:03:31;;;;;;;17.70;10.98;;;;;;;5.32;70.94;101625.06;5055883;28;20021;-68
2022/04/11 06:05:56;;;;;;;15.32;10.32;;;;;;;5.31;70.57;101604.63;5055398;28;20021;-68
2022/04/11 06:08:22;;;;;;;18.88;11.32;;;;;;;5.41;71.21;101607.09;5055218;28;20041;-68
2022/04/11 06:10:47;;;;;;;16.73;10.55;;;;;;;5.45;69.20;101618.31;5056651;28;20468;-68
2022/04/11 06:13:12;;;;;;;13.45;10.02;;;;;;;5.49;69.41;101615.13;5055396;28;20029;-68
2022/04/11 06:15:37;;;;;;;16.67;9.57;;;;;;;5.56;68.85;101617.13;5055611;28;20063;-68
2022/04/11 06:18:03;;;;;;;15.82;9.68;;;;;;;5.62;68.93;101622.66;5055009;28;20420;-68
2022/04/11 06:20:28;;;;;;;20.45;9.90;;;;;;;5.66;67.86;101621.28;5037643;28;20124;-68
2022/04/11 06:22:53;;;;;;;14.60;10.00;;;;;;;5.71;68.68;101623.47;5055274;28;20483;-67
2022/04/11 06:25:19;;;;;;;13.32;9.98;;;;;;;5.77;68.48;101620.06;5055387;28;20029;-67
2022/04/11 06:27:44;;;;;;;13.07;9.32;;;;;;;5.81;68.98;101621.41;5055581;28;20032;-68
2022/04/11 06:30:10;;;;;;;16.05;9.27;;;;;;;5.91;67.83;101617.66;5055002;28;20428;-67
2022/04/11 06:32:35;;;;;;;12.75;9.30;;;;;;;6.00;66.59;101614.78;5038503;28;20048;-68
2022/04/11 06:35:01;;;;;;;12.85;9.15;;;;;;;6.04;67.36;101615.28;5054747;28;20365;-67
2022/04/11 06:37:27;;;;;;;10.60;8.52;;;;;;;6.11;66.96;101621.59;5055106;28;20068;-67
2022/04/11 06:39:53;;;;;;;15.23;8.88;;;;;;;6.17;67.61;101618.22;5054985;28;20487;-67
2022/04/11 06:42:20;;;;;;;16.38;8.85;;;;;;;6.20;66.00;101617.88;5055059;28;20143;-68
2022/04/11 06:44:46;;;;;;;15.63;9.13;;;;;;;6.28;66.96;101622.38;5054966;28;20060;-67
2022/04/11 06:47:11;;;;;;;15.68;8.32;;;;;;;6.36;66.16;101616.09;5054407;28;20076;-68
2022/04/11 06:49:37;;;;;;;14.48;8.65;;;;;;;6.42;67.20;101615.38;5054878;28;20388;-67
2022/04/11 06:52:04;;;;;;;13.38;8.00;;;;;;;6.49;65.19;101626.25;5054524;28;20025;-68
2022/04/11 06:54:30;;;;;;;16.00;8.50;;;;;;;6.55;65.15;101626.38;5060009;28;20032;-68
2022/04/11 06:56:56;;;;;;;12.65;7.68;;;;;;;6.65;65.40;101625.31;5074407;28;20348;-68
2022/04/11 06:59:22;;;;;;;12.77;8.00;;;;;;;6.72;64.17;101627.09;5074782;28;20047;-69
2022/04/11 07:01:47;;;;;;;10.15;7.45;;;;;;;6.80;65.32;101634.25;5072700;28;20086;-69
2022/04/11 07:04:12;;;;;;;10.73;7.05;;;;;;;6.86;64.19;101638.91;5073890;28;20452;-70
2022/04/11 07:06:37;;;;;;;9.75;7.57;;;;;;;6.95;62.42;101634.31;5074416;28;20056;-69
2022/04/11 07:09:03;;;;;;;10.35;7.35;;;;;;;7.01;63.28;101628.19;5074068;28;20024;-69
2022/04/11 07:11:31;;;;;;;11.27;6.78;;;;;;;7.09;62.63;101624.59;5074212;28;20024;-68
2022/04/11 07:13:56;;;;;;;13.82;7.10;;;;;;;7.17;62.36;101624.53;5072481;28;20021;-69
2022/04/11 07:16:22;;;;;;;11.00;7.30;;;;;;;7.24;62.69;101625.44;5074461;28;20087;-68
2022/04/11 07:18:48;;;;;;;12.02;7.10;;;;;;;7.28;62.03;101615.97;5074309;28;20384;-68
2022/04/11 07:21:13;;;;;;;11.75;6.55;;;;;;;7.40;62.22;101613.66;5041365;28;20095;-68
2022/04/11 07:23:38;;;;;;;8.20;6.00;;;;;;;7.49;61.03;101606.34;5054214;28;20432;-69
2022/04/11 07:26:03;;;;;;;11.55;6.28;;;;;;;7.56;61.53;101603.72;5053712;28;20027;-70
2022/04/11 07:28:29;;;;;;;13.15;6.60;;;;;;;7.58;61.33;101610.59;5054729;28;20044;-69
2022/04/11 07:30:54;;;;;;;13.07;6.63;;;;;;;7.65;60.65;101604.47;5073498;28;20379;-69
2022/04/11 07:33:19;;;;;;;12.48;6.60;;;;;;;7.75;60.14;101602.34;5073808;28;20087;-69
2022/04/11 07:35:44;;;;;;;10.02;5.93;;;;;;;7.84;60.06;101603.06;5073999;28;20459;-68
2022/04/11 07:38:10;;;;;;;12.52;6.38;;;;;;;7.95;58.71;101605.25;5055352;28;20036;-69
2022/04/11 07:40:35;;;;;;;10.88;6.10;;;;;;;8.05;59.77;101602.28;5073153;28;20037;-69
2022/04/11 07:43:00;;;;;;;13.60;5.78;;;;;;;8.13;58.35;101594.88;5073389;28;20392;-69
2022/04/11 07:45:26;;;;;;;13.30;5.65;;;;;;;8.18;58.30;101594.31;5073386;28;20024;-69
2022/04/11 07:47:51;;;;;;;11.43;5.55;;;;;;;8.28;58.39;101602.94;5054665;28;20397;-69
2022/04/11 07:50:16;;;;;;;13.20;5.95;;;;;;;8.37;58.38;101598.25;5053475;28;20047;-68
2022/04/11 07:52:43;;;;;;;8.25;5.43;;;;;;;8.44;58.13;101584.88;5053617;28;20025;-68
2022/04/11 07:55:11;;;;;;;10.60;5.45;;;;;;;8.52;58.62;101587.44;5071238;28;20029;-70
2022/04/11 07:57:37;;;;;;;11.77;5.13;;;;;;;8.62;56.76;101585.25;5073468;28;20039;-69
2022/04/11 08:00:06;;;;;;;9.35;4.95;;;;;;;8.69;58.16;101583.44;5072827;28;20036;-69
2022/04/11 08:02:32;;;;;;;11.70;5.30;;;;;;;8.77;56.24;101574.38;5071164;28;20039;-68
2022/04/11 08:05:00;;;;;;;7.80;4.45;;;;;;;8.88;57.19;101567.63;5073504;28;20024;-69
2022/04/11 08:07:26;;;;;;;8.88;5.18;;;;;;;9.00;57.00;101571.44;5073189;28;20131;-68
2022/04/11 08:09:51;;;;;;;9.05;4.70;;;;;;;9.04;56.83;101561.06;5055376;28;20124;-70
2022/04/11 08:12:20;;;;;;;11.88;5.10;;;;;;;9.16;56.77;101564.06;5082889;28;20107;-70
2022/04/11 08:14:46;;;;;;;9.93;4.70;;;;;;;9.27;55.82;101563.53;5093431;28;20047;-67
2022/04/11 08:17:11;;;;;;;10.30;4.45;;;;;;;9.30;55.31;101565.81;5092411;28;20107;-69
2022/04/11 08:19:36;;;;;;;6.28;4.30;;;;;;;9.35;54.88;101559.81;5074979;28;20036;-69
2022/04/11 08:22:02;;;;;;;8.45;4.47;;;;;;;9.38;53.49;101560.25;5093089;28;20032;-68
2022/04/11 08:24:27;;;;;;;6.88;4.30;;;;;;;9.40;54.07;101560.91;5073169;28;20051;-70
2022/04/11 08:26:52;;;;;;;8.85;4.68;;;;;;;9.45;54.49;101554.91;5073020;28;20383;-69
2022/04/11 08:29:18;;;;;;;8.15;4.88;;;;;;;9.50;53.55;101551.59;5068746;28;20084;-69
2022/04/11 08:31:44;;;;;;;10.68;4.78;;;;;;;9.59;55.04;101553.09;5074164;28;20103;-69
2022/04/11 08:34:09;;;;;;;8.15;4.60;;;;;;;9.64;55.22;101550.59;5093005;28;20448;-69
2022/04/11 08:36:35;;;;;;;6.22;4.30;;;;;;;9.75;54.15;101550.03;5061919;28;20053;-68
2022/04/11 08:39:00;;;;;;;9.43;4.43;;;;;;;9.76;53.54;101548.97;5031100;28;20039;-69
2022/04/11 08:41:29;;;;;;;9.13;4.25;;;;;;;9.86;53.53;101540.50;5051033;28;20037;-69
2022/04/11 08:43:55;;;;;;;11.10;5.38;;;;;;;9.93;53.00;101537.81;5046984;28;20032;-69
2022/04/11 08:46:22;;;;;;;10.02;4.53;;;;;;;9.95;52.80;101549.25;5042660;28;20382;-68
2022/04/11 08:48:47;;;;;;;8.70;4.28;;;;;;;9.98;53.06;101546.16;5032384;28;20037;-69
2022/04/11 08:51:13;;;;;;;10.23;4.05;;;;;;;10.01;53.13;101542.19;5032070;28;20030;-69
2022/04/11 08:53:38;;;;;;;6.43;3.92;;;;;;;10.10;52.05;101544.50;5032357;28;20072;-69
2022/04/11 08:56:04;;;;;;;7.57;3.80;;;;;;;10.19;53.25;101547.00;5031984;28;20069;-71
2022/04/11 08:58:29;;;;;;;5.47;3.75;;;;;;;10.25;52.05;101540.78;5032259;28;20886;-70
2022/04/11 09:00:54;;;;;;;7.78;3.60;;;;;;;10.33;51.43;101546.03;5029693;28;20035;-69
2022/04/11 09:03:20;;;;;;;10.00;3.95;;;;;;;10.45;51.58;101548.97;5032041;28;20033;-69
2022/04/11 09:06:02;;;;;;;6.82;3.92;;;;;;;10.52;52.56;101546.25;5042505;28;20033;-70
2022/04/11 09:09:00;;;;;;;7.30;3.45;;;;;;;10.62;52.10;101554.81;5052402;28;20053;-69
2022/04/11 09:11:33;;;;;;;5.78;2.90;;;;;;;10.72;50.75;101551.66;5034967;28;20488;-69
2022/04/11 09:14:00;;;;;;;7.63;3.42;;;;;;;10.78;50.52;101545.44;5052419;28;20368;-68
2022/04/11 09:16:26;;;;;;;7.05;3.08;;;;;;;10.83;49.88;101548.34;5033758;28;20033;-70
2022/04/11 09:18:55;;;;;;;6.22;2.80;;;;;;;10.84;49.04;101538.34;5032076;28;20088;-68
2022/04/11 09:21:22;;;;;;;5.70;2.90;;;;;;;10.90;49.01;101535.63;5032072;28;20030;-70
2022/04/11 09:23:48;;;;;;;4.55;2.60;;;;;;;10.97;47.59;101532.91;5032605;28;20476;-68
2022/04/11 09:26:22;;;;;;;8.07;3.35;;;;;;;11.03;48.14;101526.66;5047110;28;20025;-69
2022/04/11 09:29:03;;;;;;;5.32;3.05;;;;;;;11.11;49.25;101517.44;5055058;28;20040;-69
2022/04/11 09:31:32;;;;;;;6.63;2.88;;;;;;;11.20;48.23;101515.34;5055806;28;20120;-69
2022/04/11 09:34:12;;;;;;;5.50;2.75;;;;;;;11.26;47.27;101507.22;5055483;28;20063;-69
2022/04/11 09:36:54;;;;;;;7.75;2.50;;;;;;;11.30;47.04;101505.72;5053234;28;20032;-69
2022/04/11 09:39:25;;;;;;;8.48;3.30;;;;;;;11.38;47.57;101504.66;5055559;28;20427;-69
2022/04/11 09:41:52;;;;;;;5.40;2.75;;;;;;;11.44;47.25;101506.50;5056163;28;20033;-72
2022/04/11 09:44:31;;;;;;;6.72;2.70;;;;;;;11.50;46.78;101500.25;5048326;28;20030;-69
2022/04/11 09:47:05;;;;;;;5.95;3.03;;;;;;;11.54;46.04;101506.06;5018704;28;20037;-70
2022/04/11 09:49:31;;;;;;;5.75;2.60;;;;;;;11.67;46.66;101507.88;5036047;28;20084;-68
2022/04/11 09:52:13;;;;;;;9.27;3.10;;;;;;;11.72;46.76;101494.50;5035712;28;20464;-69
2022/04/11 09:54:44;;;;;;;6.70;2.90;;;;;;;11.71;44.80;101490.13;5035848;28;20033;-69
2022/04/11 09:57:11;;;;;;;7.10;2.50;;;;;;;11.82;44.97;101485.88;5036065;28;20124;-69
2022/04/11 09:59:36;;;;;;;3.92;2.47;;;;;;;11.87;44.53;101475.25;5035479;28;20109;-69
2022/04/11 10:02:03;;;;;;;6.43;2.92;;;;;;;11.89;45.03;101478.56;5020246;28;20540;-71
2022/04/11 10:04:29;;;;;;;7.97;2.78;;;;;;;12.02;43.72;101486.63;5046991;28;20029;-67
2022/04/11 10:06:55;;;;;;;5.75;2.70;;;;;;;12.05;43.96;101478.06;5055076;28;20049;-69
2022/04/11 10:09:23;;;;;;;6.72;2.30;;;;;;;12.12;43.30;101480.72;5055253;28;20032;-73
2022/04/11 10:11:51;;;;;;;5.47;3.17;;;;;;;12.15;45.08;101479.44;5055649;28;20522;-68
2022/04/11 10:14:17;;;;;;;7.82;2.80;;;;;;;12.19;45.00;101476.06;5053267;28;20115;-70
2022/04/11 10:16:44;;;;;;;6.22;2.80;;;;;;;12.28;45.49;101468.50;5020482;28;20042;-69
2022/04/11 10:19:11;;;;;;;5.22;2.83;;;;;;;12.30;44.75;101481.84;5015182;28;20037;-69
2022/04/11 10:21:40;;;;;;;7.85;3.72;;;;;;;12.26;44.35;101470.63;5031554;28;20029;-69
2022/04/11 10:24:13;;;;;;;7.38;3.05;;;;;;;12.27;44.39;101466.00;5034646;28;20029;-68
2022/04/11 10:26:45;;;;;;;8.93;3.15;;;;;;;12.37;45.39;101460.91;5035348;28;20029;-68
2022/04/11 10:29:34;;;;;;;7.63;3.17;;;;;;;12.45;46.21;101463.34;5035398;28;20358;-69
2022/04/11 10:32:13;;;;;;;5.78;3.33;;;;;;;12.49;45.05;101463.75;5018002;28;20393;-68
2022/04/11 10:35:04;;;;;;;8.13;3.15;;;;;;;12.49;44.95;101456.41;5034926;28;20100;-67
2022/04/11 10:37:35;;;;;;;5.57;3.10;;;;;;;12.55;43.26;101463.66;5035111;28;20048;-71
2022/04/11 10:40:15;;;;;;;4.55;2.95;;;;;;;12.57;43.89;101466.97;5025291;28;20468;-69
2022/04/11 10:42:59;;;;;;;7.80;3.40;;;;;;;12.58;44.30;101456.97;5052931;28;20024;-69
2022/04/11 10:45:36;;;;;;;6.22;3.00;;;;;;;12.61;43.09;101458.41;5046741;28;20032;-68
2022/04/11 10:48:03;;;;;;;5.63;2.88;;;;;;;12.67;42.71;101449.38;5038966;28;21388;-70
2022/04/11 10:50:41;;;;;;;10.25;3.53;;;;;;;12.69;43.26;101450.78;5034679;28;20032;-70
2022/04/11 10:53:12;;;;;;;5.40;3.22;;;;;;;12.73;42.80;101440.31;5043445;28;20021;-70
2022/04/11 10:55:58;;;;;;;8.13;3.10;;;;;;;12.83;44.00;101443.34;5032022;28;20032;-70
2022/04/11 10:58:50;;;;;;;6.25;3.10;;;;;;;12.96;44.30;101436.09;5019267;28;20017;-71
2022/04/11 11:01:45;;;;;;;7.43;3.25;;;;;;;13.01;44.51;101426.19;5032483;28;20030;-69
2022/04/11 11:04:18;;;;;;;7.85;3.45;;;;;;;13.07;43.95;101427.19;5014758;28;20093;-69
2022/04/11 11:06:44;;;;;;;7.57;3.45;;;;;;;13.13;43.01;101415.41;5014809;28;20053;-71
2022/04/11 11:09:16;;;;;;;7.28;3.17;;;;;;;13.16;42.69;101406.78;5014729;28;20060;-68
2022/04/11 11:11:42;;;;;;;7.25;3.42;;;;;;;13.15;42.71;101407.88;5014895;28;20038;-69
2022/04/11 11:14:43;;;;;;;7.95;3.30;;;;;;;13.19;43.68;101414.50;5014398;28;20041;-68
2022/04/11 11:17:08;;;;;;;4.67;3.17;;;;;;;13.34;43.94;101399.72;5014995;28;20026;-69
2022/04/11 11:20:08;;;;;;;5.63;3.30;;;;;;;13.43;44.11;101398.31;5025188;28;20099;-70
2022/04/11 11:23:10;;;;;;;5.35;3.40;;;;;;;13.51;43.72;101394.44;5033628;28;20017;-69